Aérodrome :







RETROUVEZ-NOUS SUR...

 
LOGIN :

S'inscrire | Disclaimer

   EN    FR    IT 

 









Légende :    VFR   VFR Marginal   IFR   IFR Intensif   IFR Très Intensif
Visi : 
Plafond : 
>= 8 km
>= 3000ft
5 à 8 km
1000 à 3000 ft
1500m à 5 km
500 à 1000 ft
800 à 1500m
200 à 500 ft
< 800m
< 200 ft
Symboles :   Orages  Brouillard  Fortes neiges  Fortes précipitations  Vent > 20 kt






- Altitude de l'aérodrome : 107 ft


KBVY - Beverly Municipal

DERNIER METAR :
  • 250353Z AUTO 05003KT 10SM OVC023 03/01 A3039 RMK AO2 SLP287 T00280006 $

METARs EXPIRÉS :
  • 250253Z AUTO 02003KT 7SM OVC023 02/00 A3040 RMK AO2 SLP292 T00170000 53001 $
  • 250153Z AUTO 02005KT 6SM BR OVC022 01/00 A3039 RMK AO2 SLP290 T00110000 $

TAF N/A



MET'MAP, la Météo Aéronautique d'un coup d'oeil ! - Copyright ORBIFLY Décembre 2007 - Disclaimer

ORBIFLY MET'MAP TEAM :

Programmation & Développement : Alexandra Zaïnal
Sur une idée originale de : Baudouin d'Aumeries
Assistance à la programmation : Marc-Olivier Méhu
Soutien technique & logistique : Manuel Goepfert

Contact : metmap@orbifly.com




SOURCES & CREDITS :

   NOAA